Stations météo

réclame
Mon MeteoGroup
Melle, Belgique (6434): Température de l'air & dewpoint: 17.07.2018 09:00:00 - 23.07.2018 09:00:00 (CEST)Melle, Belgique (6434): Vitesse du vent & gusts: 17.07.2018 09:00:00 - 23.07.2018 09:00:00 (CEST)Melle, Belgique (6434): Direction du vent: 17.07.2018 09:00:00 - 23.07.2018 09:00:00 (CEST)Melle, Belgique (6434): reduced air pressure: 17.07.2018 09:00:00 - 23.07.2018 09:00:00 (CEST)Melle, Belgique (6434): Ensoleillement: 17.07.2018 09:00:00 - 23.07.2018 09:00:00 (CEST)Melle, Belgique (6434): Quantités de précipitations: 17.07.2018 09:00:00 - 23.07.2018 09:00:00 (CEST)
Date & Time tt [°C] td [°C] ff [km/h] ff [knt] fx [km/h] fx [knt] dd ppp [hPa] sd [min] rr [mm]
23.07.2018 09:00:00 21,7 14,5 8 5 16 8 W 1017,9 60 0,0
23.07.2018 08:00:00 20,4 14,3 7 4 13 7 WSW 1017,7 56 0,0
23.07.2018 07:00:00 19,5 14,0 5 3 9 5 WSW 1017,5 0 0,0
23.07.2018 06:00:00 19,9 14,0 4 2 11 6 W 1017,4 0 0,0
23.07.2018 05:00:00 20,3 14,3 6 4 12 7 WSW 1017,1 0 0,0
23.07.2018 04:00:00 20,3 15,0 4 2 12 6 W 1017,2 0 0,0
23.07.2018 03:00:00 19,6 15,7 6 4 9 5 SW 1017,4 0 0,0
23.07.2018 02:00:00 19,3 15,9 0 0 5 3 N 1017,5 0 0,0
23.07.2018 01:00:00 19,7 16,2 4 2 4 2 SSW 1017,5 0 0,0
23.07.2018 00:00:00 19,7 15,5 4 2 7 4 WSW 1017,4 0 0,0
22.07.2018 23:00:00 19,6 14,6 4 2 8 5 S 1017,1 0 0,0
22.07.2018 22:00:00 22,9 14,4 5 3 17 9 NW 1016,5 0 0,0
22.07.2018 21:00:00 25,0 14,4 8 4 18 10 NW 1016,0 4 0,0
22.07.2018 20:00:00 25,6 14,3 11 6 21 12 N 1015,7 11 0,0
22.07.2018 19:00:00 26,1 13,4 15 8 30 16 NNW 1015,6 55 0,0
22.07.2018 18:00:00 27,3 13,7 16 9 36 20 NNW 1015,5 60 0,0
22.07.2018 17:00:00 27,7 13,8 14 7 28 15 NNW 1015,4 60 0,0
22.07.2018 16:00:00 28,4 14,7 11 6 21 12 NW 1015,5 60 0,0
22.07.2018 15:00:00 27,3 14,2 9 5 18 10 NW 1015,5 39 0,0
22.07.2018 14:00:00 26,6 14,8 11 6 22 12 WSW 1015,8 59 0,0
22.07.2018 13:00:00 25,6 12,9 8 5 19 11 SSW 1016,0 60 0,0
22.07.2018 12:00:00 24,1 12,4 8 4 18 10 WSW 1016,3 60 0,0
22.07.2018 11:00:00 22,6 13,6 10 6 17 9 SSW 1016,3 60 0,0
22.07.2018 10:00:00 21,1 13,2 9 5 15 8 WSW 1016,3 60 0,0
22.07.2018 09:00:00 18,3 14,4 5 3 12 6 WSW 1016,1 60 0,0
22.07.2018 08:00:00 15,7 13,2 4 2 8 5 WSW 1016,0 60 0,0
22.07.2018 07:00:00 11,7 10,5 4 2 7 4 W 1015,7 18 0,0
22.07.2018 06:00:00 11,9 10,8 5 3 8 4 SSW 1015,6 0 0,0
22.07.2018 05:00:00 11,5 10,6 5 3 7 4 W 1015,6 0 0,0
22.07.2018 04:00:00 11,9 10,3 5 3 8 4 WSW 1015,6 0 0,0
22.07.2018 03:00:00 11,8 10,0 6 3 7 4 WSW 1015,4 0 0,0
22.07.2018 02:00:00 12,8 10,4 4 2 7 4 WSW 1015,4 0 0,0
22.07.2018 01:00:00 13,5 10,3 4 2 4 2 W 1015,1 0 0,0
22.07.2018 00:00:00 15,4 9,8 4 2 12 6 SSW 1015,1 0 0,0
21.07.2018 23:00:00 19,0 8,4 11 6 16 9 N 1015,1 0 0,0
21.07.2018 22:00:00 20,4 8,4 10 5 18 10 N 1014,4 12 0,0
21.07.2018 21:00:00 22,8 9,7 11 6 21 12 N 1014,0 58 0,0
21.07.2018 20:00:00 24,3 10,3 14 8 - - N 1013,4 - -
21.07.2018 19:00:00 25,2 11,1 18 10 30 16 N 1013,2 60 0,0
21.07.2018 18:00:00 26,4 11,7 16 9 31 17 N 1013,1 60 0,0
21.07.2018 17:00:00 26,4 11,2 16 9 32 18 N 1013,1 60 0,0
21.07.2018 16:00:00 26,0 11,2 13 7 27 14 N 1013,0 60 0,0
21.07.2018 15:00:00 26,5 11,7 19 10 31 17 N 1012,8 56 0,0
21.07.2018 14:00:00 25,9 11,8 14 8 26 14 N 1012,8 52 0,0
21.07.2018 13:00:00 25,4 12,5 9 5 22 12 N 1012,9 60 0,0
21.07.2018 12:00:00 24,0 13,7 9 5 19 10 NNW 1012,6 60 0,0
21.07.2018 11:00:00 22,1 15,2 12 6 18 10 N 1012,8 33 0,0
21.07.2018 10:00:00 20,5 15,9 8 4 13 7 NNW 1013,0 33 0,0
21.07.2018 09:00:00 19,1 15,9 8 4 12 7 N 1012,8 0 0,0
21.07.2018 08:00:00 17,9 15,6 4 2 9 5 W 1012,4 14 0,0
21.07.2018 07:00:00 16,9 15,4 6 3 7 4 W 1012,0 0 0,0
21.07.2018 06:00:00 16,7 15,2 6 3 10 5 W 1012,0 0 0,0
21.07.2018 05:00:00 16,9 15,0 6 3 9 5 W 1012,0 0 0,0
21.07.2018 04:00:00 17,6 15,0 4 2 9 5 WSW 1012,3 0 0,0
21.07.2018 03:00:00 18,6 14,5 4 2 14 8 NNE 1012,3 0 0,0
21.07.2018 02:00:00 18,7 13,9 7 4 14 7 NNW 1012,6 0 0,0
21.07.2018 01:00:00 18,8 12,8 10 5 14 7 N 1012,6 0 0,0
21.07.2018 00:00:00 18,1 13,6 7 4 7 4 N 1012,6 - -
20.07.2018 23:00:00 18,8 13,1 4 2 12 6 NNE 1013,3 0 0,0
20.07.2018 22:00:00 20,0 11,7 4 2 20 11 ESE 1012,9 0 0,0
20.07.2018 21:00:00 20,8 11,8 12 6 20 11 NNE 1012,7 0 0,0
20.07.2018 20:00:00 21,2 11,4 11 6 23 12 N 1012,8 0 0,0
20.07.2018 19:00:00 21,5 13,6 6 4 14 8 WNW 1013,4 0 0,0
20.07.2018 18:00:00 21,5 15,0 8 4 12 7 W 1013,7 0 0,0
20.07.2018 17:00:00 22,1 12,9 4 2 11 6 W 1014,3 0 0,0
20.07.2018 16:00:00 23,7 9,8 8 4 13 7 NNW 1014,5 0 0,0
20.07.2018 15:00:00 24,2 9,1 4 2 13 7 NNW 1014,7 0 0,0
20.07.2018 14:00:00 24,4 8,7 7 4 14 7 NNE 1014,9 0 0,0
20.07.2018 13:00:00 24,3 9,6 9 5 16 9 N 1014,9 12 0,0
20.07.2018 12:00:00 24,7 9,9 11 6 19 10 N 1015,0 60 0,0
20.07.2018 11:00:00 23,3 12,8 7 4 - - N 1015,2 - -
20.07.2018 10:00:00 - - - - - - - - - -
20.07.2018 09:00:00 18,7 14,9 5 3 8 5 NNE 1015,7 60 0,0
20.07.2018 08:00:00 16,2 13,9 4 2 5 3 N 1016,1 60 0,0
20.07.2018 07:00:00 11,9 11,2 4 2 4 2 S 1015,9 18 0,0
20.07.2018 06:00:00 11,1 10,5 4 2 7 4 N 1016,2 0 0,0
20.07.2018 05:00:00 11,1 10,2 0 0 5 3 N 1016,5 0 0,0
20.07.2018 04:00:00 12,0 10,8 0 0 4 2 N 1016,7 0 0,0
20.07.2018 03:00:00 11,8 10,4 4 2 4 2 WNW 1017,1 0 0,0
20.07.2018 02:00:00 12,3 10,6 0 0 4 2 N 1017,3 0 0,0
20.07.2018 01:00:00 13,4 10,9 0 0 9 5 N 1017,5 0 0,0
20.07.2018 00:00:00 15,5 11,2 6 4 13 7 NNE 1017,7 0 0,0
19.07.2018 23:00:00 18,4 11,1 9 5 12 7 NNE 1017,7 0 0,0
19.07.2018 22:00:00 20,1 10,3 9 5 21 11 NNE 1017,7 18 0,0
19.07.2018 21:00:00 22,6 9,9 14 7 24 13 NNE 1017,7 52 0,0
19.07.2018 20:00:00 24,0 11,0 11 6 20 11 N 1017,5 60 0,0
19.07.2018 19:00:00 25,2 11,6 13 7 21 12 NNE 1017,3 60 0,0
19.07.2018 18:00:00 25,5 11,4 13 7 24 13 N 1017,8 60 0,0
19.07.2018 17:00:00 25,7 11,6 14 8 - - N 1018,2 - -
19.07.2018 16:00:00 25,8 11,4 8 4 16 9 WNW 1018,4 60 0,0
19.07.2018 15:00:00 25,2 11,1 7 4 18 10 N 1018,6 - -
19.07.2018 14:00:00 24,6 12,0 7 4 16 9 NNE 1018,9 41 0,0
19.07.2018 13:00:00 24,0 12,2 6 3 16 8 WSW 1019,1 51 0,0
19.07.2018 12:00:00 23,9 13,2 9 5 13 7 ENE 1019,3 60 0,0
19.07.2018 11:00:00 22,8 13,3 7 4 14 7 NE 1019,3 60 0,0
19.07.2018 10:00:00 21,2 14,8 9 5 13 7 NNE 1019,6 60 0,0
19.07.2018 09:00:00 19,0 15,7 5 3 7 4 N 1019,6 60 0,0
19.07.2018 08:00:00 14,5 13,2 0 0 4 2 N 1019,7 60 0,0
19.07.2018 07:00:00 10,9 10,3 4 2 5 3 WSW 1019,6 11 0,0
19.07.2018 06:00:00 10,7 10,2 4 2 6 3 WSW 1019,6 0 0,0
19.07.2018 05:00:00 10,8 10,1 0 0 5 3 N 1019,5 0 0,0
19.07.2018 04:00:00 11,4 10,6 4 2 4 2 W 1019,7 0 0,0
19.07.2018 03:00:00 12,0 10,9 0 0 5 3 N 1019,7 0 0,0
19.07.2018 02:00:00 12,4 11,3 4 2 8 5 W 1019,7 0 0,0
19.07.2018 01:00:00 13,3 11,5 0 0 4 2 N 1019,6 0 0,0
19.07.2018 00:00:00 14,7 12,1 0 0 3 2 N 1019,6 0 0,0
18.07.2018 23:00:00 17,0 12,6 5 3 14 8 NE 1019,4 0 0,0
18.07.2018 22:00:00 20,2 12,7 9 5 16 9 NNE 1019,2 25 0,0
18.07.2018 21:00:00 22,0 13,0 9 5 21 11 NNE 1018,9 60 0,0
18.07.2018 20:00:00 23,0 13,0 11 6 21 11 N 1018,7 47 0,0
18.07.2018 19:00:00 23,2 13,1 14 7 22 12 N 1018,7 2 0,0
18.07.2018 18:00:00 24,0 12,9 11 6 20 11 N 1018,7 54 0,0
18.07.2018 17:00:00 24,2 12,7 9 5 19 10 NNE 1018,8 49 0,0
18.07.2018 16:00:00 23,9 11,9 8 4 23 12 W 1018,9 60 0,0
18.07.2018 15:00:00 24,7 12,5 12 7 25 14 WSW 1019,0 60 0,0
18.07.2018 14:00:00 23,6 11,5 4 2 16 9 N 1019,0 27 0,0
18.07.2018 13:00:00 23,1 12,4 9 5 22 12 W 1019,4 47 0,0
18.07.2018 12:00:00 21,9 12,9 10 5 23 13 W 1019,5 60 0,0
18.07.2018 11:00:00 20,5 13,7 7 4 19 10 WNW 1019,7 60 0,0
18.07.2018 10:00:00 18,7 13,5 10 5 16 9 W 1019,7 60 0,0
18.07.2018 09:00:00 17,1 12,6 9 5 16 9 W 1019,6 60 0,0
18.07.2018 08:00:00 15,4 12,1 4 2 9 5 W 1019,2 60 0,0
18.07.2018 07:00:00 12,1 10,7 0 0 7 4 N 1019,2 31 0,0
18.07.2018 06:00:00 11,7 10,5 6 3 9 5 WSW 1019,0 0 0,0
18.07.2018 05:00:00 11,0 10,1 4 2 11 6 W 1019,0 0 0,0
18.07.2018 04:00:00 11,9 10,5 8 4 10 6 SW 1019,0 0 0,0
18.07.2018 03:00:00 11,4 10,2 4 2 6 3 WSW 1019,1 0 0,0
18.07.2018 02:00:00 12,0 10,5 4 2 6 3 SSW 1019,0 0 0,0
18.07.2018 01:00:00 13,4 11,1 4 2 5 3 S 1018,9 0 0,0
18.07.2018 00:00:00 15,7 11,6 4 2 8 5 W 1018,8 0 0,0
17.07.2018 23:00:00 16,7 11,8 4 2 8 4 WNW 1018,5 0 0,0
17.07.2018 22:00:00 20,4 11,6 8 4 16 9 WNW 1017,8 18 0,0
17.07.2018 21:00:00 21,9 11,1 6 4 17 9 NW 1017,5 27 0,0
17.07.2018 20:00:00 22,9 10,0 11 6 21 12 NNW 1017,1 48 0,0
17.07.2018 19:00:00 23,7 9,5 14 7 27 15 WNW 1017,0 60 0,0
17.07.2018 18:00:00 23,4 9,5 11 6 26 14 NW 1016,9 60 0,0
17.07.2018 17:00:00 24,2 10,7 14 7 32 17 NW 1017,0 60 0,0
17.07.2018 16:00:00 24,2 11,6 17 9 35 19 WNW 1016,7 60 0,0
17.07.2018 15:00:00 24,5 10,6 20 11 38 20 WSW 1016,6 60 0,0
17.07.2018 14:00:00 24,6 10,8 14 8 40 21 WSW 1016,5 55 0,0
17.07.2018 13:00:00 23,7 12,3 17 9 34 19 W 1016,4 57 0,0
17.07.2018 12:00:00 23,1 13,0 18 10 30 16 WSW 1016,2 60 0,0
17.07.2018 11:00:00 21,6 16,1 12 6 27 15 W 1015,9 60 0,0
17.07.2018 10:00:00 19,7 16,1 11 6 23 12 W 1015,8 60 0,0
17.07.2018 09:00:00 18,4 15,9 13 7 24 13 W 1015,7 60 0,0

tt = Température de l'air
td = dewpoint
ff = Vitesse du vent
fx = gusts
dd = Direction du vent
ppp = reduced air pressure
sd = Ensoleillement
rr = Quantités de précipitations

stations d'obs. à proximité